sensor_id;sensor_type;location;lat;lon;timestamp;pressure;altitude;pressure_sealevel;temperature;humidity
74437;BME280;62868;52.360;30.424;2023-01-10T00:05:17;1030.2;;;-0.3;63.4
74437;BME280;62868;52.360;30.424;2023-01-10T00:09:57;1030.2;;;-0.3;63.4
74437;BME280;62868;52.360;30.424;2023-01-10T00:14:45;1030.3;;;-0.3;63.4
74437;BME280;62868;52.360;30.424;2023-01-10T00:19:55;1030.4;;;-0.3;63.2
74437;BME280;62868;52.360;30.424;2023-01-10T00:24:55;1030.7;;;-0.4;63.1
74437;BME280;62868;52.360;30.424;2023-01-10T00:30:17;1030.6;;;-0.5;62.7
74437;BME280;62868;52.360;30.424;2023-01-10T00:34:55;1030.6;;;-0.5;62.7
74437;BME280;62868;52.360;30.424;2023-01-10T00:40:06;1030.6;;;-0.5;62.4
74437;BME280;62868;52.360;30.424;2023-01-10T00:45:07;1030.7;;;-0.4;62.2
74437;BME280;62868;52.360;30.424;2023-01-10T00:49:37;1030.7;;;-0.4;62
74437;BME280;62868;52.360;30.424;2023-01-10T00:55:13;1030.6;;;-0.4;61.7
74437;BME280;62868;52.360;30.424;2023-01-10T01:00:05;1030.6;;;-0.4;61.7
74437;BME280;62868;52.360;30.424;2023-01-10T01:04:37;1030.7;;;-0.4;61.6
74437;BME280;62868;52.360;30.424;2023-01-10T01:09:55;1030.8;;;-0.5;61.4
74437;BME280;62868;52.360;30.424;2023-01-10T01:14:53;1030.8;;;-0.6;61.1
74437;BME280;62868;52.360;30.424;2023-01-10T01:20:17;1031;;;-0.6;60.9
74437;BME280;62868;52.360;30.424;2023-01-10T01:24:37;1031;;;-0.6;60.9
74437;BME280;62868;52.360;30.424;2023-01-10T01:30:05;1031;;;-0.6;60.7
74437;BME280;62868;52.360;30.424;2023-01-10T01:35:05;1031;;;-0.6;60.6
74437;BME280;62868;52.360;30.424;2023-01-10T01:39:45;1031;;;-0.7;60.4
74437;BME280;62868;52.360;30.424;2023-01-10T01:45:35;1031.1;;;-0.7;60
74437;BME280;62868;52.360;30.424;2023-01-10T01:50:08;1031.1;;;-0.7;60
74437;BME280;62868;52.360;30.424;2023-01-10T01:54:37;1031.2;;;-0.8;60
74437;BME280;62868;52.360;30.424;2023-01-10T01:59:44;1031;;;-0.9;60.1
74437;BME280;62868;52.360;30.424;2023-01-10T02:04:37;1031;;;-0.9;60
74437;BME280;62868;52.360;30.424;2023-01-10T02:10:18;1031;;;-0.8;59.6
74437;BME280;62868;52.360;30.424;2023-01-10T02:14:43;1031;;;-0.8;59.6
74437;BME280;62868;52.360;30.424;2023-01-10T02:20:00;1031.1;;;-0.8;59.5
74437;BME280;62868;52.360;30.424;2023-01-10T02:25:19;1031.1;;;-0.7;59.2
74437;BME280;62868;52.360;30.424;2023-01-10T02:29:50;1031.2;;;-0.7;59.1
74437;BME280;62868;52.360;30.424;2023-01-10T02:35:24;1031.3;;;-0.7;58.7
74437;BME280;62868;52.360;30.424;2023-01-10T02:40:25;1031.4;;;-0.7;58.6
74437;BME280;62868;52.360;30.424;2023-01-10T02:45:11;1031.4;;;-0.7;58.6
74437;BME280;62868;52.360;30.424;2023-01-10T02:49:41;1031.4;;;-0.7;58.5
74437;BME280;62868;52.360;30.424;2023-01-10T02:54:37;1031.5;;;-0.8;58.3
74437;BME280;62868;52.360;30.424;2023-01-10T03:00:29;1031.6;;;-0.8;58.1
74437;BME280;62868;52.360;30.424;2023-01-10T03:04:40;1031.6;;;-0.8;58.1
74437;BME280;62868;52.360;30.424;2023-01-10T03:10:00;1031.6;;;-0.9;57.9
74437;BME280;62868;52.360;30.424;2023-01-10T03:15:14;1031.8;;;-1;57.6
74437;BME280;62868;52.360;30.424;2023-01-10T03:19:53;1031.8;;;-1;57.6
74437;BME280;62868;52.360;30.424;2023-01-10T03:25:23;1031.9;;;-1;57.1
74437;BME280;62868;52.360;30.424;2023-01-10T03:30:12;1031.9;;;-1;57.1
74437;BME280;62868;52.360;30.424;2023-01-10T03:35:27;1032;;;-1.1;56.8
74437;BME280;62868;52.360;30.424;2023-01-10T03:39:39;1032;;;-1.1;56.8
74437;BME280;62868;52.360;30.424;2023-01-10T03:45:00;1031.9;;;-1.1;56.7
74437;BME280;62868;52.360;30.424;2023-01-10T03:50:23;1032;;;-1.1;56.4
74437;BME280;62868;52.360;30.424;2023-01-10T03:54:37;1032;;;-1.1;56.4
74437;BME280;62868;52.360;30.424;2023-01-10T03:59:59;1032;;;-1.1;56.2
74437;BME280;62868;52.360;30.424;2023-01-10T04:05:13;1032;;;-1.1;55.9
74437;BME280;62868;52.360;30.424;2023-01-10T04:09:37;1032;;;-1.1;55.9
74437;BME280;62868;52.360;30.424;2023-01-10T04:15:13;1032.1;;;-1.1;55.8
74437;BME280;62868;52.360;30.424;2023-01-10T04:20:09;1032.1;;;-1.1;55.8
74437;BME280;62868;52.360;30.424;2023-01-10T04:25:11;1032.1;;;-1.1;55.7
74437;BME280;62868;52.360;30.424;2023-01-10T04:30:01;1032.1;;;-1.2;55.4
74437;BME280;62868;52.360;30.424;2023-01-10T04:34:47;1032.1;;;-1.2;55.3
74437;BME280;62868;52.360;30.424;2023-01-10T04:40:23;1032.1;;;-1.2;55.2
74437;BME280;62868;52.360;30.424;2023-01-10T04:44:37;1032.1;;;-1.2;55.2
74437;BME280;62868;52.360;30.424;2023-01-10T04:50:01;1032.2;;;-1.2;55.2
74437;BME280;62868;52.360;30.424;2023-01-10T04:55:15;1032.4;;;-1.2;55
74437;BME280;62868;52.360;30.424;2023-01-10T04:59:49;1032.4;;;-1.2;55
74437;BME280;62868;52.360;30.424;2023-01-10T05:05:23;1032.5;;;-1.2;54.9
74437;BME280;62868;52.360;30.424;2023-01-10T05:10:09;1032.5;;;-1.2;54.9
74437;BME280;62868;52.360;30.424;2023-01-10T05:14:39;1032.5;;;-1.3;54.7
74437;BME280;62868;52.360;30.424;2023-01-10T05:19:47;1032.5;;;-1.3;54.6
74437;BME280;62868;52.360;30.424;2023-01-10T05:24:49;1032.6;;;-1.3;54.7
74437;BME280;62868;52.360;30.424;2023-01-10T05:30:21;1032.7;;;-1.3;54.7
74437;BME280;62868;52.360;30.424;2023-01-10T05:34:49;1032.7;;;-1.3;54.7
74437;BME280;62868;52.360;30.424;2023-01-10T05:39:57;1032.7;;;-1.3;54.7
74437;BME280;62868;52.360;30.424;2023-01-10T05:45:13;1032.9;;;-1.3;54.7
74437;BME280;62868;52.360;30.424;2023-01-10T05:49:37;1032.9;;;-1.3;54.7
74437;BME280;62868;52.360;30.424;2023-01-10T05:55:25;1033;;;-1.4;54.6
74437;BME280;62868;52.360;30.424;2023-01-10T06:00:13;1033.2;;;-1.4;54.6
74437;BME280;62868;52.360;30.424;2023-01-10T06:05:15;1033.2;;;-1.4;54.6
74437;BME280;62868;52.360;30.424;2023-01-10T06:10:03;1033.2;;;-1.4;54.6
74437;BME280;62868;52.360;30.424;2023-01-10T06:14:57;1033.3;;;-1.4;54.6
74437;BME280;62868;52.360;30.424;2023-01-10T06:20:25;1033.5;;;-1.4;54.7
74437;BME280;62868;52.360;30.424;2023-01-10T06:24:57;1033.5;;;-1.4;54.7
74437;BME280;62868;52.360;30.424;2023-01-10T06:30:01;1033.6;;;-1.3;54.8
74437;BME280;62868;52.360;30.424;2023-01-10T06:35:15;1033.8;;;-1.2;54.9
74437;BME280;62868;52.360;30.424;2023-01-10T06:39:37;1033.8;;;-1.2;54.9
74437;BME280;62868;52.360;30.424;2023-01-10T06:45:13;1034;;;-1.2;54.8
74437;BME280;62868;52.360;30.424;2023-01-10T06:50:13;1034.1;;;-1.2;54.8
74437;BME280;62868;52.360;30.424;2023-01-10T06:55:13;1034.3;;;-1.3;54.8
74437;BME280;62868;52.360;30.424;2023-01-10T06:59:37;1034.3;;;-1.3;54.8
74437;BME280;62868;52.360;30.424;2023-01-10T07:05:25;1034.4;;;-1.3;54.9
74437;BME280;62868;52.360;30.424;2023-01-10T07:10:21;1034.4;;;-1.3;54.8
74437;BME280;62868;52.360;30.424;2023-01-10T07:14:49;1034.4;;;-1.3;54.8
74437;BME280;62868;52.360;30.424;2023-01-10T07:20:03;1034.5;;;-1.2;54.8
74437;BME280;62868;52.360;30.424;2023-01-10T07:25:23;1034.7;;;-1.2;54.9
74437;BME280;62868;52.360;30.424;2023-01-10T07:29:47;1034.7;;;-1.2;54.9
74437;BME280;62868;52.360;30.424;2023-01-10T07:35:13;1034.8;;;-1.3;54.8
74437;BME280;62868;52.360;30.424;2023-01-10T07:40:10;1034.8;;;-1.3;54.8
74437;BME280;62868;52.360;30.424;2023-01-10T07:45:13;1034.9;;;-1.4;54.8
74437;BME280;62868;52.360;30.424;2023-01-10T07:49:49;1034.9;;;-1.4;54.8
74437;BME280;62868;52.360;30.424;2023-01-10T07:55:25;1035;;;-1.5;54.8
74437;BME280;62868;52.360;30.424;2023-01-10T08:00:23;1035.1;;;-1.4;54.7
74437;BME280;62868;52.360;30.424;2023-01-10T08:04:37;1035.1;;;-1.4;54.7
74437;BME280;62868;52.360;30.424;2023-01-10T08:09:37;1035.2;;;-1.4;54.7
74437;BME280;62868;52.360;30.424;2023-01-10T08:15:25;1035.3;;;-1.4;54.7
74437;BME280;62868;52.360;30.424;2023-01-10T08:19:49;1035.3;;;-1.4;54.7
74437;BME280;62868;52.360;30.424;2023-01-10T08:25:11;1035.4;;;-1.5;54.6
74437;BME280;62868;52.360;30.424;2023-01-10T08:35:01;1035.5;;;-1.4;54.6
74437;BME280;62868;52.360;30.424;2023-01-10T08:39:37;1035.5;;;-1.3;54.6
74437;BME280;62868;52.360;30.424;2023-01-10T08:45:25;1035.7;;;-1.1;54.5
74437;BME280;62868;52.360;30.424;2023-01-10T08:50:25;1035.8;;;-1.1;54.5
74437;BME280;62868;52.360;30.424;2023-01-10T08:54:37;1035.8;;;-1.1;54.5
74437;BME280;62868;52.360;30.424;2023-01-10T08:59:37;1035.8;;;-1.1;54.4
74437;BME280;62868;52.360;30.424;2023-01-10T09:05:25;1035.8;;;-1;54.1
74437;BME280;62868;52.360;30.424;2023-01-10T09:09:49;1035.8;;;-1;54.1
74437;BME280;62868;52.360;30.424;2023-01-10T09:15:13;1035.8;;;-0.9;53.7
74437;BME280;62868;52.360;30.424;2023-01-10T09:20:13;1035.8;;;-1;53.6
74437;BME280;62868;52.360;30.424;2023-01-10T09:24:59;1035.8;;;-1;53.6
74437;BME280;62868;52.360;30.424;2023-01-10T09:29:37;1035.8;;;-0.9;53.3
74437;BME280;62868;52.360;30.424;2023-01-10T09:35:26;1035.7;;;-0.7;53.1
74437;BME280;62868;52.360;30.424;2023-01-10T09:40:24;1035.8;;;-0.7;52.9
74437;BME280;62868;52.360;30.424;2023-01-10T09:44:38;1035.8;;;-0.7;52.9
74437;BME280;62868;52.360;30.424;2023-01-10T09:50:03;1035.8;;;-0.7;52.7
74437;BME280;62868;52.360;30.424;2023-01-10T09:55:24;1035.8;;;-0.4;52.4
74437;BME280;62868;52.360;30.424;2023-01-10T09:59:50;1035.8;;;-0.4;52.4
74437;BME280;62868;52.360;30.424;2023-01-10T10:05:25;1035.7;;;-0.1;52.1
74437;BME280;62868;52.360;30.424;2023-01-10T10:10:12;1035.7;;;-0.1;52.1
74437;BME280;62868;52.360;30.424;2023-01-10T10:14:56;1035.6;;;0.1;51.9
74437;BME280;62868;52.360;30.424;2023-01-10T10:19:41;1035.6;;;0.1;51.8
74437;BME280;62868;52.360;30.424;2023-01-10T10:25:31;1035.7;;;-0.2;51.4
74437;BME280;62868;52.360;30.424;2023-01-10T10:30:25;1035.7;;;-0.1;51.2
74437;BME280;62868;52.360;30.424;2023-01-10T10:34:59;1035.7;;;-0.1;51.2
74437;BME280;62868;52.360;30.424;2023-01-10T10:39:49;1035.7;;;-0.2;51
74437;BME280;62868;52.360;30.424;2023-01-10T10:45:14;1035.7;;;-0.3;50.9
74437;BME280;62868;52.360;30.424;2023-01-10T10:49:40;1035.6;;;-0.4;50.9
74437;BME280;62868;52.360;30.424;2023-01-10T10:55:12;1035.6;;;-0.4;50.9
74437;BME280;62868;52.360;30.424;2023-01-10T11:00:13;1035.6;;;-0.5;50.8
74437;BME280;62868;52.360;30.424;2023-01-10T11:04:48;1035.6;;;-0.6;50.7
74437;BME280;62868;52.360;30.424;2023-01-10T11:09:49;1035.6;;;-0.5;50.7
74437;BME280;62868;52.360;30.424;2023-01-10T11:15:41;1035.6;;;-0.7;50.5
74437;BME280;62868;52.360;30.424;2023-01-10T11:19:58;1035.6;;;-0.7;50.5
74437;BME280;62868;52.360;30.424;2023-01-10T11:24:50;1035.6;;;-0.7;50.4
74437;BME280;62868;52.360;30.424;2023-01-10T11:30:02;1035.7;;;-0.6;50.5
74437;BME280;62868;52.360;30.424;2023-01-10T11:35:16;1035.7;;;-0.6;50.5
74437;BME280;62868;52.360;30.424;2023-01-10T11:40:22;1035.8;;;-0.5;50.4
74437;BME280;62868;52.360;30.424;2023-01-10T11:45:26;1035.9;;;-0.6;50.4
74437;BME280;62868;52.360;30.424;2023-01-10T11:50:22;1035.9;;;-0.7;50.2
74437;BME280;62868;52.360;30.424;2023-01-10T11:54:39;1035.9;;;-0.7;50.2
74437;BME280;62868;52.360;30.424;2023-01-10T11:59:37;1035.8;;;-0.8;50.1
74437;BME280;62868;52.360;30.424;2023-01-10T12:05:23;1035.8;;;-0.9;50.1
74437;BME280;62868;52.360;30.424;2023-01-10T12:10:17;1035.8;;;-0.9;50.1
74437;BME280;62868;52.360;30.424;2023-01-10T12:14:50;1035.8;;;-0.9;50
74437;BME280;62868;52.360;30.424;2023-01-10T12:20:02;1035.9;;;-1;50
74437;BME280;62868;52.360;30.424;2023-01-10T12:25:15;1036;;;-1.2;49.7
74437;BME280;62868;52.360;30.424;2023-01-10T12:30:14;1036;;;-1.3;49.5
74437;BME280;62868;52.360;30.424;2023-01-10T12:35:30;1036;;;-1.3;49.4
74437;BME280;62868;52.360;30.424;2023-01-10T12:40:24;1036.1;;;-1.4;49.3
74437;BME280;62868;52.360;30.424;2023-01-10T12:45:02;1036.1;;;-1.4;49.3
74437;BME280;62868;52.360;30.424;2023-01-10T12:49:40;1036.2;;;-1.4;49.4
74437;BME280;62868;52.360;30.424;2023-01-10T12:55:25;1036.2;;;-1.3;49.4
74437;BME280;62868;52.360;30.424;2023-01-10T13:00:17;1036.2;;;-1.4;49.3
74437;BME280;62868;52.360;30.424;2023-01-10T13:04:37;1036.2;;;-1.4;49.3
74437;BME280;62868;52.360;30.424;2023-01-10T13:09:37;1036.2;;;-1.4;49.4
74437;BME280;62868;52.360;30.424;2023-01-10T13:15:26;1036.3;;;-1.4;49.2
74437;BME280;62868;52.360;30.424;2023-01-10T13:20:34;1036.3;;;-1.4;49.2
74437;BME280;62868;52.360;30.424;2023-01-10T13:25:26;1036.3;;;-1.5;49
74437;BME280;62868;52.360;30.424;2023-01-10T13:30:26;1036.5;;;-1.6;49
74437;BME280;62868;52.360;30.424;2023-01-10T13:34:47;1036.5;;;-1.6;49
74437;BME280;62868;52.360;30.424;2023-01-10T13:39:50;1036.6;;;-1.6;49
74437;BME280;62868;52.360;30.424;2023-01-10T13:45:28;1036.7;;;-1.6;48.8
74437;BME280;62868;52.360;30.424;2023-01-10T13:51:18;1036.7;;;-1.7;48.9
74437;BME280;62868;52.360;30.424;2023-01-10T13:55:19;1036.7;;;-1.7;48.9
74437;BME280;62868;52.360;30.424;2023-01-10T14:00:19;1036.8;;;-1.6;48.8
74437;BME280;62868;52.360;30.424;2023-01-10T14:05:14;1036.8;;;-1.7;48.9
74437;BME280;62868;52.360;30.424;2023-01-10T14:10:17;1036.8;;;-1.7;48.9
74437;BME280;62868;52.360;30.424;2023-01-10T14:15:24;1036.9;;;-1.8;49
74437;BME280;62868;52.360;30.424;2023-01-10T14:20:23;1036.9;;;-1.8;49
74437;BME280;62868;52.360;30.424;2023-01-10T14:25:02;1036.9;;;-1.8;49
74437;BME280;62868;52.360;30.424;2023-01-10T14:29:59;1036.9;;;-1.9;49
74437;BME280;62868;52.360;30.424;2023-01-10T14:35:06;1036.9;;;-2;49
74437;BME280;62868;52.360;30.424;2023-01-10T14:40:16;1036.9;;;-2.1;49
74437;BME280;62868;52.360;30.424;2023-01-10T14:44:53;1036.9;;;-2.1;49
74437;BME280;62868;52.360;30.424;2023-01-10T14:50:01;1037;;;-2.1;48.9
74437;BME280;62868;52.360;30.424;2023-01-10T14:55:17;1037;;;-2.2;49
74437;BME280;62868;52.360;30.424;2023-01-10T15:00:11;1037;;;-2.2;49
74437;BME280;62868;52.360;30.424;2023-01-10T15:05:24;1037;;;-2.3;49
74437;BME280;62868;52.360;30.424;2023-01-10T15:10:24;1036.9;;;-2.4;49.1
74437;BME280;62868;52.360;30.424;2023-01-10T15:15:01;1036.9;;;-2.4;49.1
74437;BME280;62868;52.360;30.424;2023-01-10T15:19:50;1036.9;;;-2.4;49.1
74437;BME280;62868;52.360;30.424;2023-01-10T15:25:28;1036.9;;;-2.5;48.9
74437;BME280;62868;52.360;30.424;2023-01-10T15:30:28;1037;;;-2.4;48.9
74437;BME280;62868;52.360;30.424;2023-01-10T15:34:50;1037;;;-2.4;48.9
74437;BME280;62868;52.360;30.424;2023-01-10T15:39:49;1037.1;;;-2.4;48.9
74437;BME280;62868;52.360;30.424;2023-01-10T15:45:17;1037.1;;;-2.2;48.9
74437;BME280;62868;52.360;30.424;2023-01-10T15:50:17;1037.1;;;-2.2;48.8
74437;BME280;62868;52.360;30.424;2023-01-10T15:55:18;1037.1;;;-2.2;48.8
74437;BME280;62868;52.360;30.424;2023-01-10T16:00:00;1037;;;-2.2;48.8
74437;BME280;62868;52.360;30.424;2023-01-10T16:04:47;1037.1;;;-2.3;48.8
74437;BME280;62868;52.360;30.424;2023-01-10T16:09:47;1037;;;-2.3;48.7
74437;BME280;62868;52.360;30.424;2023-01-10T16:15:28;1037;;;-2.3;48.6
74437;BME280;62868;52.360;30.424;2023-01-10T16:19:45;1037;;;-2.3;48.6
74437;BME280;62868;52.360;30.424;2023-01-10T16:25:01;1037;;;-2.3;48.6
74437;BME280;62868;52.360;30.424;2023-01-10T16:30:01;1037;;;-2.2;48.5
74437;BME280;62868;52.360;30.424;2023-01-10T16:35:11;1037;;;-2.2;48.5
74437;BME280;62868;52.360;30.424;2023-01-10T16:40:26;1037;;;-2.2;48.3
74437;BME280;62868;52.360;30.424;2023-01-10T16:44:49;1037;;;-2.2;48.3
74437;BME280;62868;52.360;30.424;2023-01-10T16:49:37;1037;;;-2.3;48.1
74437;BME280;62868;52.360;30.424;2023-01-10T16:54:47;1037;;;-2.3;48.1
74437;BME280;62868;52.360;30.424;2023-01-10T16:59:37;1037.1;;;-2.2;47.9
74437;BME280;62868;52.360;30.424;2023-01-10T17:05:27;1037.2;;;-2.1;47.6
74437;BME280;62868;52.360;30.424;2023-01-10T17:09:37;1037.2;;;-2.1;47.6
74437;BME280;62868;52.360;30.424;2023-01-10T17:14:47;1037.2;;;-2;47.4
74437;BME280;62868;52.360;30.424;2023-01-10T17:20:14;1037.3;;;-1.9;47.6
74437;BME280;62868;52.360;30.424;2023-01-10T17:25:14;1037.3;;;-1.8;47.5
74437;BME280;62868;52.360;30.424;2023-01-10T17:30:25;1037.2;;;-1.8;47.3
74437;BME280;62868;52.360;30.424;2023-01-10T17:34:37;1037.2;;;-1.8;47.3
74437;BME280;62868;52.360;30.424;2023-01-10T17:39:57;1037.3;;;-1.7;47.2
74437;BME280;62868;52.360;30.424;2023-01-10T17:45:00;1037.4;;;-1.7;47.2
74437;BME280;62868;52.360;30.424;2023-01-10T17:49:37;1037.4;;;-1.6;47.2
74437;BME280;62868;52.360;30.424;2023-01-10T17:55:27;1037.3;;;-1.6;47.1
74437;BME280;62868;52.360;30.424;2023-01-10T17:59:45;1037.3;;;-1.6;47.1
74437;BME280;62868;52.360;30.424;2023-01-10T18:04:37;1037.3;;;-1.6;47.1
74437;BME280;62868;52.360;30.424;2023-01-10T18:10:16;1037.4;;;-1.6;47
74437;BME280;62868;52.360;30.424;2023-01-10T18:15:11;1037.4;;;-1.6;47
74437;BME280;62868;52.360;30.424;2023-01-10T18:20:27;1037.3;;;-1.5;46.9
74437;BME280;62868;52.360;30.424;2023-01-10T18:24:37;1037.3;;;-1.5;46.9
74437;BME280;62868;52.360;30.424;2023-01-10T18:29:59;1037.4;;;-1.5;46.9
74437;BME280;62868;52.360;30.424;2023-01-10T18:34:47;1037.5;;;-1.5;46.9
74437;BME280;62868;52.360;30.424;2023-01-10T18:39:38;1037.5;;;-1.5;46.9
74437;BME280;62868;52.360;30.424;2023-01-10T18:45:25;1037.6;;;-1.5;46.8
74437;BME280;62868;52.360;30.424;2023-01-10T18:49:37;1037.6;;;-1.5;46.8
74437;BME280;62868;52.360;30.424;2023-01-10T18:54:38;1037.5;;;-1.4;46.8
74437;BME280;62868;52.360;30.424;2023-01-10T19:00:14;1037.5;;;-1.5;46.6
74437;BME280;62868;52.360;30.424;2023-01-10T19:05:24;1037.6;;;-1.6;46.8
74437;BME280;62868;52.360;30.424;2023-01-10T19:10:23;1037.6;;;-1.6;46.9
74437;BME280;62868;52.360;30.424;2023-01-10T19:14:47;1037.6;;;-1.6;46.9
74437;BME280;62868;52.360;30.424;2023-01-10T19:19:57;1037.5;;;-1.7;46.9
74437;BME280;62868;52.360;30.424;2023-01-10T19:24:47;1037.6;;;-1.7;47
74437;BME280;62868;52.360;30.424;2023-01-10T19:29:47;1037.5;;;-1.8;47.2
74437;BME280;62868;52.360;30.424;2023-01-10T19:35:14;1037.7;;;-2.1;48.1
74437;BME280;62868;52.360;30.424;2023-01-10T19:39:47;1037.7;;;-2.1;48.1
74437;BME280;62868;52.360;30.424;2023-01-10T19:44:47;1037.6;;;-2.2;48.6
74437;BME280;62868;52.360;30.424;2023-01-10T19:50:13;1037.8;;;-2.5;49.7
74437;BME280;62868;52.360;30.424;2023-01-10T19:55:09;1037.8;;;-2.5;49.7
74437;BME280;62868;52.360;30.424;2023-01-10T20:00:24;1037.9;;;-2.6;50.5
74437;BME280;62868;52.360;30.424;2023-01-10T20:04:37;1037.9;;;-2.6;50.5
74437;BME280;62868;52.360;30.424;2023-01-10T20:09:58;1037.9;;;-2.7;51
74437;BME280;62868;52.360;30.424;2023-01-10T20:14:57;1038;;;-2.6;51
74437;BME280;62868;52.360;30.424;2023-01-10T20:19:38;1038;;;-2.6;51.2
74437;BME280;62868;52.360;30.424;2023-01-10T20:25:12;1038.1;;;-2.6;51.5
74437;BME280;62868;52.360;30.424;2023-01-10T20:29:58;1038.1;;;-2.7;51.7
74437;BME280;62868;52.360;30.424;2023-01-10T20:34:48;1038.1;;;-2.7;52
74437;BME280;62868;52.360;30.424;2023-01-10T20:40:14;1038.1;;;-2.7;52.4
74437;BME280;62868;52.360;30.424;2023-01-10T20:45:10;1038.1;;;-2.7;52.4
74437;BME280;62868;52.360;30.424;2023-01-10T20:50:26;1038.1;;;-2.8;53.1
74437;BME280;62868;52.360;30.424;2023-01-10T20:54:38;1038.1;;;-2.8;53.1
74437;BME280;62868;52.360;30.424;2023-01-10T20:59:48;1038.1;;;-2.8;53.3
74437;BME280;62868;52.360;30.424;2023-01-10T21:04:38;1037.9;;;-2.9;53.5
74437;BME280;62868;52.360;30.424;2023-01-10T21:09:48;1038;;;-2.9;53.8
74437;BME280;62868;52.360;30.424;2023-01-10T21:15:22;1038;;;-2.9;54
74437;BME280;62868;52.360;30.424;2023-01-10T21:19:56;1038;;;-2.9;54
74437;BME280;62868;52.360;30.424;2023-01-10T21:25:00;1038;;;-2.9;54.1
74437;BME280;62868;52.360;30.424;2023-01-10T21:30:12;1037.9;;;-2.9;54.2
74437;BME280;62868;52.360;30.424;2023-01-10T21:35:10;1038;;;-2.9;54.3
74437;BME280;62868;52.360;30.424;2023-01-10T21:40:24;1038;;;-2.9;54.7
74437;BME280;62868;52.360;30.424;2023-01-10T21:44:38;1038;;;-2.9;54.7
74437;BME280;62868;52.360;30.424;2023-01-10T21:49:48;1038.1;;;-3;54.9
74437;BME280;62868;52.360;30.424;2023-01-10T21:55:00;1038.1;;;-3.1;55
74437;BME280;62868;52.360;30.424;2023-01-10T21:59:38;1038.1;;;-3.1;55.2
74437;BME280;62868;52.360;30.424;2023-01-10T22:05:22;1038.1;;;-3.3;55.6
74437;BME280;62868;52.360;30.424;2023-01-10T22:09:56;1038.1;;;-3.3;55.6
74437;BME280;62868;52.360;30.424;2023-01-10T22:14:38;1038.1;;;-3.3;55.8
74437;BME280;62868;52.360;30.424;2023-01-10T22:20:12;1038.2;;;-3.5;56.1
74437;BME280;62868;52.360;30.424;2023-01-10T22:25:12;1038.2;;;-3.5;56.2
74437;BME280;62868;52.360;30.424;2023-01-10T22:30:26;1038;;;-3.6;56.4
74437;BME280;62868;52.360;30.424;2023-01-10T22:34:38;1038;;;-3.6;56.4
74437;BME280;62868;52.360;30.424;2023-01-10T22:39:38;1038;;;-3.6;56.4
74437;BME280;62868;52.360;30.424;2023-01-10T22:44:48;1038.1;;;-3.6;56.5
74437;BME280;62868;52.360;30.424;2023-01-10T22:50:00;1038.1;;;-3.7;56.8
74437;BME280;62868;52.360;30.424;2023-01-10T22:55:22;1038.1;;;-4;57.2
74437;BME280;62868;52.360;30.424;2023-01-10T22:59:54;1038.1;;;-4;57.2
74437;BME280;62868;52.360;30.424;2023-01-10T23:04:46;1038.1;;;-4;57.2
74437;BME280;62868;52.360;30.424;2023-01-10T23:10:08;1038.2;;;-4;57.4
74437;BME280;62868;52.360;30.424;2023-01-10T23:15:06;1038.3;;;-4.1;57.7
74437;BME280;62868;52.360;30.424;2023-01-10T23:20:22;1038.3;;;-4.2;57.9
74437;BME280;62868;52.360;30.424;2023-01-10T23:24:44;1038.3;;;-4.2;57.9
74437;BME280;62868;52.360;30.424;2023-01-10T23:29:46;1038.4;;;-4.2;57.9
74437;BME280;62868;52.360;30.424;2023-01-10T23:34:54;1038.4;;;-4.2;58
74437;BME280;62868;52.360;30.424;2023-01-10T23:39:38;1038.4;;;-4.2;58.1
74437;BME280;62868;52.360;30.424;2023-01-10T23:45:22;1038.5;;;-4.3;58.4
74437;BME280;62868;52.360;30.424;2023-01-10T23:49:52;1038.5;;;-4.3;58.4
74437;BME280;62868;52.360;30.424;2023-01-10T23:54:44;1038.5;;;-4.4;58.6
